sensor_id;sensor_type;location;lat;lon;timestamp;P1;durP1;ratioP1;P2;durP2;ratioP2
28529;SDS011;15737;49.760;6.632;2023-06-10T00:01:35;4.10;;;3.70;;
28529;SDS011;15737;49.760;6.632;2023-06-10T00:04:01;3.50;;;3.20;;
28529;SDS011;15737;49.760;6.632;2023-06-10T00:06:27;3.30;;;3.00;;
28529;SDS011;15737;49.760;6.632;2023-06-10T00:08:53;3.47;;;2.50;;
28529;SDS011;15737;49.760;6.632;2023-06-10T00:11:19;4.35;;;3.10;;
28529;SDS011;15737;49.760;6.632;2023-06-10T00:13:46;3.20;;;2.90;;
28529;SDS011;15737;49.760;6.632;2023-06-10T00:16:12;3.90;;;3.47;;
28529;SDS011;15737;49.760;6.632;2023-06-10T00:18:37;2.97;;;2.78;;
28529;SDS011;15737;49.760;6.632;2023-06-10T00:21:04;3.57;;;3.00;;
28529;SDS011;15737;49.760;6.632;2023-06-10T00:23:30;2.90;;;2.70;;
28529;SDS011;15737;49.760;6.632;2023-06-10T00:25:57;4.30;;;2.90;;
28529;SDS011;15737;49.760;6.632;2023-06-10T00:28:24;3.47;;;3.00;;
28529;SDS011;15737;49.760;6.632;2023-06-10T00:30:50;2.30;;;2.10;;
28529;SDS011;15737;49.760;6.632;2023-06-10T00:33:16;4.30;;;3.27;;
28529;SDS011;15737;49.760;6.632;2023-06-10T00:35:41;3.07;;;2.87;;
28529;SDS011;15737;49.760;6.632;2023-06-10T00:38:07;4.47;;;3.07;;
28529;SDS011;15737;49.760;6.632;2023-06-10T00:40:33;4.73;;;3.10;;
28529;SDS011;15737;49.760;6.632;2023-06-10T00:43:03;3.37;;;3.03;;
28529;SDS011;15737;49.760;6.632;2023-06-10T00:45:29;3.47;;;2.90;;
28529;SDS011;15737;49.760;6.632;2023-06-10T00:47:55;3.40;;;3.10;;
28529;SDS011;15737;49.760;6.632;2023-06-10T00:50:21;5.80;;;3.40;;
28529;SDS011;15737;49.760;6.632;2023-06-10T00:52:46;4.63;;;3.10;;
28529;SDS011;15737;49.760;6.632;2023-06-10T00:55:13;2.80;;;2.60;;
28529;SDS011;15737;49.760;6.632;2023-06-10T00:57:41;3.97;;;3.37;;
28529;SDS011;15737;49.760;6.632;2023-06-10T01:00:09;5.97;;;3.33;;
28529;SDS011;15737;49.760;6.632;2023-06-10T01:02:35;3.70;;;3.40;;
28529;SDS011;15737;49.760;6.632;2023-06-10T01:05:01;4.23;;;3.10;;
28529;SDS011;15737;49.760;6.632;2023-06-10T01:10:49;3.55;;;2.90;;
28529;SDS011;15737;49.760;6.632;2023-06-10T01:13:18;4.38;;;3.97;;
28529;SDS011;15737;49.760;6.632;2023-06-10T01:15:48;6.15;;;3.35;;
28529;SDS011;15737;49.760;6.632;2023-06-10T01:18:15;3.67;;;3.38;;
28529;SDS011;15737;49.760;6.632;2023-06-10T01:20:41;3.90;;;3.60;;
28529;SDS011;15737;49.760;6.632;2023-06-10T01:23:09;3.65;;;3.10;;
28529;SDS011;15737;49.760;6.632;2023-06-10T01:25:43;3.60;;;3.30;;
28529;SDS011;15737;49.760;6.632;2023-06-10T01:28:14;4.47;;;4.03;;
28529;SDS011;15737;49.760;6.632;2023-06-10T01:31:07;3.50;;;3.20;;
28529;SDS011;15737;49.760;6.632;2023-06-10T01:33:53;4.53;;;3.20;;
28529;SDS011;15737;49.760;6.632;2023-06-10T01:36:19;3.15;;;2.85;;
28529;SDS011;15737;49.760;6.632;2023-06-10T01:38:48;6.83;;;2.90;;
28529;SDS011;15737;49.760;6.632;2023-06-10T01:41:18;4.50;;;3.80;;
28529;SDS011;15737;49.760;6.632;2023-06-10T01:43:46;3.75;;;3.45;;
28529;SDS011;15737;49.760;6.632;2023-06-10T01:46:12;3.33;;;3.03;;
28529;SDS011;15737;49.760;6.632;2023-06-10T01:48:38;3.43;;;3.07;;
28529;SDS011;15737;49.760;6.632;2023-06-10T01:51:04;4.63;;;3.97;;
28529;SDS011;15737;49.760;6.632;2023-06-10T01:53:29;4.23;;;3.77;;
28529;SDS011;15737;49.760;6.632;2023-06-10T01:55:55;3.87;;;3.50;;
28529;SDS011;15737;49.760;6.632;2023-06-10T01:58:20;3.97;;;3.10;;
28529;SDS011;15737;49.760;6.632;2023-06-10T02:00:46;3.90;;;3.37;;
28529;SDS011;15737;49.760;6.632;2023-06-10T02:03:12;3.83;;;3.27;;
28529;SDS011;15737;49.760;6.632;2023-06-10T02:05:37;4.03;;;3.63;;
28529;SDS011;15737;49.760;6.632;2023-06-10T02:08:03;3.97;;;3.67;;
28529;SDS011;15737;49.760;6.632;2023-06-10T02:10:29;3.60;;;3.30;;
28529;SDS011;15737;49.760;6.632;2023-06-10T02:12:55;3.77;;;3.40;;
28529;SDS011;15737;49.760;6.632;2023-06-10T02:15:20;5.70;;;3.43;;
28529;SDS011;15737;49.760;6.632;2023-06-10T02:17:46;3.60;;;3.30;;
28529;SDS011;15737;49.760;6.632;2023-06-10T02:20:13;3.57;;;3.27;;
28529;SDS011;15737;49.760;6.632;2023-06-10T02:22:39;4.10;;;3.70;;
28529;SDS011;15737;49.760;6.632;2023-06-10T02:25:05;4.83;;;3.13;;
28529;SDS011;15737;49.760;6.632;2023-06-10T02:27:31;2.70;;;2.50;;
28529;SDS011;15737;49.760;6.632;2023-06-10T02:29:57;9.17;;;3.93;;
28529;SDS011;15737;49.760;6.632;2023-06-10T02:32:22;2.90;;;2.70;;
28529;SDS011;15737;49.760;6.632;2023-06-10T02:34:48;4.00;;;3.33;;
28529;SDS011;15737;49.760;6.632;2023-06-10T02:37:14;5.83;;;2.83;;
28529;SDS011;15737;49.760;6.632;2023-06-10T02:39:40;5.70;;;3.50;;
28529;SDS011;15737;49.760;6.632;2023-06-10T02:42:06;4.37;;;3.97;;
28529;SDS011;15737;49.760;6.632;2023-06-10T02:44:32;5.03;;;3.67;;
28529;SDS011;15737;49.760;6.632;2023-06-10T02:46:57;3.30;;;3.00;;
28529;SDS011;15737;49.760;6.632;2023-06-10T02:49:23;5.63;;;3.60;;
28529;SDS011;15737;49.760;6.632;2023-06-10T02:51:49;4.10;;;3.37;;
28529;SDS011;15737;49.760;6.632;2023-06-10T02:54:18;3.57;;;3.27;;
28529;SDS011;15737;49.760;6.632;2023-06-10T02:56:44;3.67;;;3.10;;
28529;SDS011;15737;49.760;6.632;2023-06-10T02:59:10;3.63;;;3.20;;
28529;SDS011;15737;49.760;6.632;2023-06-10T03:01:36;3.63;;;3.33;;
28529;SDS011;15737;49.760;6.632;2023-06-10T03:04:03;3.53;;;3.23;;
28529;SDS011;15737;49.760;6.632;2023-06-10T03:06:29;3.17;;;2.87;;
28529;SDS011;15737;49.760;6.632;2023-06-10T03:08:55;3.27;;;2.80;;
28529;SDS011;15737;49.760;6.632;2023-06-10T03:11:20;5.27;;;3.30;;
28529;SDS011;15737;49.760;6.632;2023-06-10T03:13:46;3.90;;;3.40;;
28529;SDS011;15737;49.760;6.632;2023-06-10T03:16:11;3.93;;;3.50;;
28529;SDS011;15737;49.760;6.632;2023-06-10T03:18:37;3.97;;;3.57;;
28529;SDS011;15737;49.760;6.632;2023-06-10T03:21:03;3.40;;;3.10;;
28529;SDS011;15737;49.760;6.632;2023-06-10T03:23:28;3.60;;;3.30;;
28529;SDS011;15737;49.760;6.632;2023-06-10T03:25:54;3.60;;;3.30;;
28529;SDS011;15737;49.760;6.632;2023-06-10T03:28:20;6.73;;;3.83;;
28529;SDS011;15737;49.760;6.632;2023-06-10T03:30:46;3.40;;;3.00;;
28529;SDS011;15737;49.760;6.632;2023-06-10T03:33:12;4.43;;;3.63;;
28529;SDS011;15737;49.760;6.632;2023-06-10T03:35:38;3.67;;;3.37;;
28529;SDS011;15737;49.760;6.632;2023-06-10T03:38:04;3.77;;;3.30;;
28529;SDS011;15737;49.760;6.632;2023-06-10T03:40:30;3.40;;;3.10;;
28529;SDS011;15737;49.760;6.632;2023-06-10T03:42:56;4.40;;;3.97;;
28529;SDS011;15737;49.760;6.632;2023-06-10T03:45:22;5.23;;;3.60;;
28529;SDS011;15737;49.760;6.632;2023-06-10T03:47:49;7.13;;;3.17;;
28529;SDS011;15737;49.760;6.632;2023-06-10T03:50:15;3.80;;;3.30;;
28529;SDS011;15737;49.760;6.632;2023-06-10T03:52:41;3.63;;;3.27;;
28529;SDS011;15737;49.760;6.632;2023-06-10T03:55:06;3.90;;;3.30;;
28529;SDS011;15737;49.760;6.632;2023-06-10T03:57:32;3.63;;;3.20;;
28529;SDS011;15737;49.760;6.632;2023-06-10T03:59:58;6.50;;;3.37;;
28529;SDS011;15737;49.760;6.632;2023-06-10T04:02:23;3.67;;;3.27;;
28529;SDS011;15737;49.760;6.632;2023-06-10T04:04:50;3.93;;;3.50;;
28529;SDS011;15737;49.760;6.632;2023-06-10T04:07:16;4.10;;;3.37;;
28529;SDS011;15737;49.760;6.632;2023-06-10T04:09:41;5.33;;;3.57;;
28529;SDS011;15737;49.760;6.632;2023-06-10T04:12:07;5.20;;;3.20;;
28529;SDS011;15737;49.760;6.632;2023-06-10T04:14:35;4.70;;;4.20;;
28529;SDS011;15737;49.760;6.632;2023-06-10T04:17:04;3.77;;;3.40;;
28529;SDS011;15737;49.760;6.632;2023-06-10T04:19:33;4.07;;;3.63;;
28529;SDS011;15737;49.760;6.632;2023-06-10T04:22:00;3.30;;;3.00;;
28529;SDS011;15737;49.760;6.632;2023-06-10T04:24:27;4.53;;;3.73;;
28529;SDS011;15737;49.760;6.632;2023-06-10T04:26:53;4.67;;;3.53;;
28529;SDS011;15737;49.760;6.632;2023-06-10T04:29:18;3.90;;;3.37;;
28529;SDS011;15737;49.760;6.632;2023-06-10T04:31:44;4.60;;;3.63;;
28529;SDS011;15737;49.760;6.632;2023-06-10T04:34:11;3.97;;;3.57;;
28529;SDS011;15737;49.760;6.632;2023-06-10T04:36:37;3.97;;;3.57;;
28529;SDS011;15737;49.760;6.632;2023-06-10T04:39:03;4.00;;;3.70;;
28529;SDS011;15737;49.760;6.632;2023-06-10T04:41:29;4.97;;;3.53;;
28529;SDS011;15737;49.760;6.632;2023-06-10T04:43:54;4.03;;;3.50;;
28529;SDS011;15737;49.760;6.632;2023-06-10T04:46:20;5.68;;;3.88;;
28529;SDS011;15737;49.760;6.632;2023-06-10T04:48:45;4.07;;;3.47;;
28529;SDS011;15737;49.760;6.632;2023-06-10T04:51:12;3.58;;;3.25;;
28529;SDS011;15737;49.760;6.632;2023-06-10T04:53:38;3.75;;;3.35;;
28529;SDS011;15737;49.760;6.632;2023-06-10T04:56:04;3.60;;;3.30;;
28529;SDS011;15737;49.760;6.632;2023-06-10T04:58:29;6.10;;;3.60;;
28529;SDS011;15737;49.760;6.632;2023-06-10T05:00:55;3.35;;;3.05;;
28529;SDS011;15737;49.760;6.632;2023-06-10T05:03:20;3.83;;;3.45;;
28529;SDS011;15737;49.760;6.632;2023-06-10T05:05:46;4.28;;;3.58;;
28529;SDS011;15737;49.760;6.632;2023-06-10T05:08:12;4.07;;;3.30;;
28529;SDS011;15737;49.760;6.632;2023-06-10T05:10:37;3.28;;;3.08;;
28529;SDS011;15737;49.760;6.632;2023-06-10T05:13:03;3.58;;;3.28;;
28529;SDS011;15737;49.760;6.632;2023-06-10T05:15:28;5.10;;;3.53;;
28529;SDS011;15737;49.760;6.632;2023-06-10T05:17:56;4.13;;;3.45;;
28529;SDS011;15737;49.760;6.632;2023-06-10T05:20:24;4.38;;;3.97;;
28529;SDS011;15737;49.760;6.632;2023-06-10T05:22:50;5.15;;;3.72;;
28529;SDS011;15737;49.760;6.632;2023-06-10T05:25:16;3.78;;;3.47;;
28529;SDS011;15737;49.760;6.632;2023-06-10T05:27:41;4.05;;;3.65;;
28529;SDS011;15737;49.760;6.632;2023-06-10T05:30:08;4.38;;;3.95;;
28529;SDS011;15737;49.760;6.632;2023-06-10T05:32:35;4.00;;;3.60;;
28529;SDS011;15737;49.760;6.632;2023-06-10T05:35:01;4.38;;;3.97;;
28529;SDS011;15737;49.760;6.632;2023-06-10T05:37:26;6.15;;;4.35;;
28529;SDS011;15737;49.760;6.632;2023-06-10T05:39:52;4.20;;;3.88;;
28529;SDS011;15737;49.760;6.632;2023-06-10T05:42:17;5.65;;;4.13;;
28529;SDS011;15737;49.760;6.632;2023-06-10T05:44:43;9.95;;;4.25;;
28529;SDS011;15737;49.760;6.632;2023-06-10T05:47:09;4.18;;;3.67;;
28529;SDS011;15737;49.760;6.632;2023-06-10T05:49:34;7.40;;;4.30;;
28529;SDS011;15737;49.760;6.632;2023-06-10T05:52:00;3.97;;;3.67;;
28529;SDS011;15737;49.760;6.632;2023-06-10T05:54:25;4.93;;;3.97;;
28529;SDS011;15737;49.760;6.632;2023-06-10T05:56:51;5.03;;;4.13;;
28529;SDS011;15737;49.760;6.632;2023-06-10T05:59:17;5.10;;;4.10;;
28529;SDS011;15737;49.760;6.632;2023-06-10T06:01:42;4.40;;;3.85;;
28529;SDS011;15737;49.760;6.632;2023-06-10T06:04:08;4.10;;;3.70;;
28529;SDS011;15737;49.760;6.632;2023-06-10T06:06:34;3.40;;;3.20;;
28529;SDS011;15737;49.760;6.632;2023-06-10T06:09:00;4.30;;;3.78;;
28529;SDS011;15737;49.760;6.632;2023-06-10T06:11:25;4.70;;;4.30;;
28529;SDS011;15737;49.760;6.632;2023-06-10T06:13:51;5.25;;;3.90;;
28529;SDS011;15737;49.760;6.632;2023-06-10T06:16:17;5.72;;;3.65;;
28529;SDS011;15737;49.760;6.632;2023-06-10T06:18:43;4.15;;;3.75;;
28529;SDS011;15737;49.760;6.632;2023-06-10T06:21:08;3.97;;;3.65;;
28529;SDS011;15737;49.760;6.632;2023-06-10T06:23:34;4.50;;;3.85;;
28529;SDS011;15737;49.760;6.632;2023-06-10T06:26:00;4.30;;;3.90;;
28529;SDS011;15737;49.760;6.632;2023-06-10T06:28:25;7.00;;;3.75;;
28529;SDS011;15737;49.760;6.632;2023-06-10T06:30:54;4.50;;;4.10;;
28529;SDS011;15737;49.760;6.632;2023-06-10T06:33:22;4.78;;;3.95;;
28529;SDS011;15737;49.760;6.632;2023-06-10T06:35:48;5.82;;;3.58;;
28529;SDS011;15737;49.760;6.632;2023-06-10T06:38:13;3.40;;;3.10;;
28529;SDS011;15737;49.760;6.632;2023-06-10T06:40:39;3.70;;;3.40;;
28529;SDS011;15737;49.760;6.632;2023-06-10T06:43:05;3.55;;;3.25;;
28529;SDS011;15737;49.760;6.632;2023-06-10T06:45:30;5.20;;;3.92;;
28529;SDS011;15737;49.760;6.632;2023-06-10T06:47:56;4.05;;;3.65;;
28529;SDS011;15737;49.760;6.632;2023-06-10T06:50:21;5.30;;;4.00;;
28529;SDS011;15737;49.760;6.632;2023-06-10T06:52:47;4.38;;;3.50;;
28529;SDS011;15737;49.760;6.632;2023-06-10T06:55:12;4.03;;;3.63;;
28529;SDS011;15737;49.760;6.632;2023-06-10T06:57:38;3.88;;;3.35;;
28529;SDS011;15737;49.760;6.632;2023-06-10T07:00:04;4.30;;;3.67;;
28529;SDS011;15737;49.760;6.632;2023-06-10T07:02:30;3.53;;;3.33;;
28529;SDS011;15737;49.760;6.632;2023-06-10T07:04:58;4.20;;;3.40;;
28529;SDS011;15737;49.760;6.632;2023-06-10T07:07:23;5.43;;;4.00;;
28529;SDS011;15737;49.760;6.632;2023-06-10T07:09:49;4.88;;;4.00;;
28529;SDS011;15737;49.760;6.632;2023-06-10T07:12:15;4.22;;;3.83;;
28529;SDS011;15737;49.760;6.632;2023-06-10T07:14:40;4.65;;;3.88;;
28529;SDS011;15737;49.760;6.632;2023-06-10T07:17:06;3.95;;;3.65;;
28529;SDS011;15737;49.760;6.632;2023-06-10T07:19:31;3.75;;;3.45;;
28529;SDS011;15737;49.760;6.632;2023-06-10T07:21:57;4.07;;;3.70;;
28529;SDS011;15737;49.760;6.632;2023-06-10T07:24:22;4.35;;;3.85;;
28529;SDS011;15737;49.760;6.632;2023-06-10T07:26:48;3.35;;;3.15;;
28529;SDS011;15737;49.760;6.632;2023-06-10T07:29:13;4.20;;;3.25;;
28529;SDS011;15737;49.760;6.632;2023-06-10T07:31:40;3.70;;;3.40;;
28529;SDS011;15737;49.760;6.632;2023-06-10T07:34:06;4.10;;;3.72;;
28529;SDS011;15737;49.760;6.632;2023-06-10T07:36:31;3.72;;;3.42;;
28529;SDS011;15737;49.760;6.632;2023-06-10T07:38:57;3.80;;;3.50;;
28529;SDS011;15737;49.760;6.632;2023-06-10T07:41:23;3.83;;;3.53;;
28529;SDS011;15737;49.760;6.632;2023-06-10T07:43:52;3.75;;;3.45;;
28529;SDS011;15737;49.760;6.632;2023-06-10T07:46:20;3.95;;;3.58;;
28529;SDS011;15737;49.760;6.632;2023-06-10T07:51:19;4.30;;;3.90;;
28529;SDS011;15737;49.760;6.632;2023-06-10T07:53:46;3.95;;;3.30;;
28529;SDS011;15737;49.760;6.632;2023-06-10T07:56:11;3.65;;;3.35;;
28529;SDS011;15737;49.760;6.632;2023-06-10T07:58:37;3.80;;;3.40;;
28529;SDS011;15737;49.760;6.632;2023-06-10T08:01:03;3.80;;;3.42;;
28529;SDS011;15737;49.760;6.632;2023-06-10T08:03:29;4.13;;;3.08;;
28529;SDS011;15737;49.760;6.632;2023-06-10T08:05:54;3.72;;;3.40;;
28529;SDS011;15737;49.760;6.632;2023-06-10T08:08:20;3.70;;;3.33;;
28529;SDS011;15737;49.760;6.632;2023-06-10T08:10:45;3.70;;;3.40;;
28529;SDS011;15737;49.760;6.632;2023-06-10T08:13:11;3.65;;;3.38;;
28529;SDS011;15737;49.760;6.632;2023-06-10T08:15:37;2.95;;;2.75;;
28529;SDS011;15737;49.760;6.632;2023-06-10T08:18:02;3.40;;;3.10;;
28529;SDS011;15737;49.760;6.632;2023-06-10T08:20:28;4.13;;;3.50;;
28529;SDS011;15737;49.760;6.632;2023-06-10T08:22:53;5.18;;;3.47;;
28529;SDS011;15737;49.760;6.632;2023-06-10T08:25:19;3.80;;;3.50;;
28529;SDS011;15737;49.760;6.632;2023-06-10T08:27:47;3.50;;;3.20;;
28529;SDS011;15737;49.760;6.632;2023-06-10T08:30:12;3.65;;;3.30;;
28529;SDS011;15737;49.760;6.632;2023-06-10T08:32:38;4.15;;;3.58;;
28529;SDS011;15737;49.760;6.632;2023-06-10T08:35:04;3.60;;;3.25;;
28529;SDS011;15737;49.760;6.632;2023-06-10T08:37:29;3.65;;;3.35;;
28529;SDS011;15737;49.760;6.632;2023-06-10T08:39:55;3.63;;;3.33;;
28529;SDS011;15737;49.760;6.632;2023-06-10T08:44:53;3.95;;;3.65;;
28529;SDS011;15737;49.760;6.632;2023-06-10T08:47:24;4.07;;;3.70;;
28529;SDS011;15737;49.760;6.632;2023-06-10T08:49:50;3.92;;;3.65;;
28529;SDS011;15737;49.760;6.632;2023-06-10T08:52:21;3.58;;;3.30;;
28529;SDS011;15737;49.760;6.632;2023-06-10T08:57:25;4.55;;;4.15;;
28529;SDS011;15737;49.760;6.632;2023-06-10T08:59:56;3.53;;;3.22;;
28529;SDS011;15737;49.760;6.632;2023-06-10T09:02:22;4.95;;;3.60;;
28529;SDS011;15737;49.760;6.632;2023-06-10T09:04:49;3.50;;;3.20;;
28529;SDS011;15737;49.760;6.632;2023-06-10T09:07:15;3.55;;;3.35;;
28529;SDS011;15737;49.760;6.632;2023-06-10T09:09:41;3.20;;;2.95;;
28529;SDS011;15737;49.760;6.632;2023-06-10T09:12:08;4.20;;;3.78;;
28529;SDS011;15737;49.760;6.632;2023-06-10T09:14:34;3.97;;;3.67;;
28529;SDS011;15737;49.760;6.632;2023-06-10T09:17:03;4.00;;;3.65;;
28529;SDS011;15737;49.760;6.632;2023-06-10T09:19:30;6.20;;;3.50;;
28529;SDS011;15737;49.760;6.632;2023-06-10T09:21:55;4.00;;;3.70;;
28529;SDS011;15737;49.760;6.632;2023-06-10T09:24:24;3.92;;;3.63;;
28529;SDS011;15737;49.760;6.632;2023-06-10T09:26:50;3.53;;;3.33;;
28529;SDS011;15737;49.760;6.632;2023-06-10T09:29:27;4.03;;;3.72;;
28529;SDS011;15737;49.760;6.632;2023-06-10T09:31:53;4.38;;;3.85;;
28529;SDS011;15737;49.760;6.632;2023-06-10T09:34:19;4.72;;;4.20;;
28529;SDS011;15737;49.760;6.632;2023-06-10T09:36:45;4.25;;;3.95;;
28529;SDS011;15737;49.760;6.632;2023-06-10T09:39:15;4.07;;;3.63;;
28529;SDS011;15737;49.760;6.632;2023-06-10T09:41:42;4.35;;;4.00;;
28529;SDS011;15737;49.760;6.632;2023-06-10T09:44:18;4.25;;;3.95;;
28529;SDS011;15737;49.760;6.632;2023-06-10T09:46:45;3.55;;;3.30;;
28529;SDS011;15737;49.760;6.632;2023-06-10T09:49:12;3.70;;;3.42;;
28529;SDS011;15737;49.760;6.632;2023-06-10T09:51:37;4.13;;;3.83;;
28529;SDS011;15737;49.760;6.632;2023-06-10T09:54:13;4.30;;;3.90;;
28529;SDS011;15737;49.760;6.632;2023-06-10T09:56:39;6.55;;;4.25;;
28529;SDS011;15737;49.760;6.632;2023-06-10T09:59:07;4.22;;;3.92;;
28529;SDS011;15737;49.760;6.632;2023-06-10T10:01:33;4.53;;;4.15;;
28529;SDS011;15737;49.760;6.632;2023-06-10T10:03:58;4.55;;;4.25;;
28529;SDS011;15737;49.760;6.632;2023-06-10T10:06:25;4.97;;;3.75;;
28529;SDS011;15737;49.760;6.632;2023-06-10T10:08:51;4.25;;;3.85;;
28529;SDS011;15737;49.760;6.632;2023-06-10T10:11:17;3.53;;;3.22;;
28529;SDS011;15737;49.760;6.632;2023-06-10T10:13:47;4.00;;;3.75;;
28529;SDS011;15737;49.760;6.632;2023-06-10T10:16:15;3.88;;;3.58;;
28529;SDS011;15737;49.760;6.632;2023-06-10T10:18:45;3.83;;;3.53;;
28529;SDS011;15737;49.760;6.632;2023-06-10T10:21:16;4.07;;;3.78;;
28529;SDS011;15737;49.760;6.632;2023-06-10T10:26:28;3.88;;;3.60;;
28529;SDS011;15737;49.760;6.632;2023-06-10T10:29:07;3.30;;;3.10;;
28529;SDS011;15737;49.760;6.632;2023-06-10T10:31:37;3.67;;;3.38;;
28529;SDS011;15737;49.760;6.632;2023-06-10T10:34:07;3.08;;;2.80;;
28529;SDS011;15737;49.760;6.632;2023-06-10T10:36:37;3.72;;;3.42;;
28529;SDS011;15737;49.760;6.632;2023-06-10T10:39:03;5.97;;;3.08;;
28529;SDS011;15737;49.760;6.632;2023-06-10T10:41:30;3.45;;;3.25;;
28529;SDS011;15737;49.760;6.632;2023-06-10T10:43:57;3.50;;;3.20;;
28529;SDS011;15737;49.760;6.632;2023-06-10T10:46:23;3.97;;;3.42;;
28529;SDS011;15737;49.760;6.632;2023-06-10T10:48:53;3.55;;;3.25;;
28529;SDS011;15737;49.760;6.632;2023-06-10T10:51:19;3.53;;;2.90;;
28529;SDS011;15737;49.760;6.632;2023-06-10T10:54:01;5.22;;;2.70;;
28529;SDS011;15737;49.760;6.632;2023-06-10T10:56:35;2.97;;;2.78;;
28529;SDS011;15737;49.760;6.632;2023-06-10T10:59:04;4.13;;;2.63;;
28529;SDS011;15737;49.760;6.632;2023-06-10T11:01:39;3.75;;;2.53;;
28529;SDS011;15737;49.760;6.632;2023-06-10T11:04:07;2.90;;;2.70;;
28529;SDS011;15737;49.760;6.632;2023-06-10T11:06:34;2.95;;;2.75;;
28529;SDS011;15737;49.760;6.632;2023-06-10T11:08:59;2.70;;;2.50;;
28529;SDS011;15737;49.760;6.632;2023-06-10T11:11:26;3.15;;;2.40;;
28529;SDS011;15737;49.760;6.632;2023-06-10T11:16:38;2.40;;;2.30;;
28529;SDS011;15737;49.760;6.632;2023-06-10T11:19:08;2.63;;;2.42;;
28529;SDS011;15737;49.760;6.632;2023-06-10T11:21:45;2.45;;;2.25;;
28529;SDS011;15737;49.760;6.632;2023-06-10T11:24:26;2.45;;;2.25;;
28529;SDS011;15737;49.760;6.632;2023-06-10T11:26:51;2.85;;;2.13;;
28529;SDS011;15737;49.760;6.632;2023-06-10T11:29:17;2.65;;;2.33;;
28529;SDS011;15737;49.760;6.632;2023-06-10T11:31:43;2.47;;;2.33;;
28529;SDS011;15737;49.760;6.632;2023-06-10T11:34:10;2.22;;;2.13;;
28529;SDS011;15737;49.760;6.632;2023-06-10T11:36:37;2.05;;;1.80;;
28529;SDS011;15737;49.760;6.632;2023-06-10T11:39:05;2.05;;;1.95;;
28529;SDS011;15737;49.760;6.632;2023-06-10T11:41:32;3.17;;;2.13;;
28529;SDS011;15737;49.760;6.632;2023-06-10T11:44:02;2.60;;;2.40;;
28529;SDS011;15737;49.760;6.632;2023-06-10T11:46:29;2.67;;;2.47;;
28529;SDS011;15737;49.760;6.632;2023-06-10T11:48:56;2.72;;;2.53;;
28529;SDS011;15737;49.760;6.632;2023-06-10T11:51:25;2.40;;;2.20;;
28529;SDS011;15737;49.760;6.632;2023-06-10T11:53:52;2.30;;;2.15;;
28529;SDS011;15737;49.760;6.632;2023-06-10T12:01:22;2.58;;;2.42;;
28529;SDS011;15737;49.760;6.632;2023-06-10T12:09:34;2.80;;;2.60;;
28529;SDS011;15737;49.760;6.632;2023-06-10T12:12:00;2.35;;;2.15;;
28529;SDS011;15737;49.760;6.632;2023-06-10T12:17:18;2.72;;;2.55;;
28529;SDS011;15737;49.760;6.632;2023-06-10T12:19:46;3.88;;;1.90;;
28529;SDS011;15737;49.760;6.632;2023-06-10T12:22:12;1.83;;;1.73;;
28529;SDS011;15737;49.760;6.632;2023-06-10T12:24:45;2.15;;;1.95;;
28529;SDS011;15737;49.760;6.632;2023-06-10T12:27:21;3.38;;;2.40;;
28529;SDS011;15737;49.760;6.632;2023-06-10T12:29:51;2.33;;;2.22;;
28529;SDS011;15737;49.760;6.632;2023-06-10T12:32:20;2.22;;;2.13;;
28529;SDS011;15737;49.760;6.632;2023-06-10T12:35:01;2.65;;;2.45;;
28529;SDS011;15737;49.760;6.632;2023-06-10T12:37:29;2.70;;;2.47;;
28529;SDS011;15737;49.760;6.632;2023-06-10T12:39:55;2.80;;;2.30;;
28529;SDS011;15737;49.760;6.632;2023-06-10T12:42:22;2.72;;;2.53;;
28529;SDS011;15737;49.760;6.632;2023-06-10T12:44:52;1.80;;;1.70;;
28529;SDS011;15737;49.760;6.632;2023-06-10T12:47:18;2.50;;;2.30;;
28529;SDS011;15737;49.760;6.632;2023-06-10T12:49:44;3.63;;;2.10;;
28529;SDS011;15737;49.760;6.632;2023-06-10T12:52:09;3.92;;;3.00;;
28529;SDS011;15737;49.760;6.632;2023-06-10T12:54:35;2.28;;;2.15;;
28529;SDS011;15737;49.760;6.632;2023-06-10T12:57:01;2.25;;;2.10;;
28529;SDS011;15737;49.760;6.632;2023-06-10T12:59:27;2.30;;;2.20;;
28529;SDS011;15737;49.760;6.632;2023-06-10T13:01:53;2.30;;;2.20;;
28529;SDS011;15737;49.760;6.632;2023-06-10T13:04:19;2.30;;;2.10;;
28529;SDS011;15737;49.760;6.632;2023-06-10T13:06:46;3.17;;;2.72;;
28529;SDS011;15737;49.760;6.632;2023-06-10T13:09:13;2.70;;;2.50;;
28529;SDS011;15737;49.760;6.632;2023-06-10T13:11:40;3.03;;;2.70;;
28529;SDS011;15737;49.760;6.632;2023-06-10T13:14:07;3.03;;;2.67;;
28529;SDS011;15737;49.760;6.632;2023-06-10T13:16:33;2.90;;;2.70;;
28529;SDS011;15737;49.760;6.632;2023-06-10T13:18:59;2.60;;;2.40;;
28529;SDS011;15737;49.760;6.632;2023-06-10T13:21:27;2.47;;;2.38;;
28529;SDS011;15737;49.760;6.632;2023-06-10T13:23:53;2.33;;;2.17;;
28529;SDS011;15737;49.760;6.632;2023-06-10T13:26:18;2.60;;;2.50;;
28529;SDS011;15737;49.760;6.632;2023-06-10T13:28:44;2.63;;;2.40;;
28529;SDS011;15737;49.760;6.632;2023-06-10T13:31:10;2.60;;;2.40;;
28529;SDS011;15737;49.760;6.632;2023-06-10T13:33:35;2.83;;;2.50;;
28529;SDS011;15737;49.760;6.632;2023-06-10T13:36:01;2.70;;;2.50;;
28529;SDS011;15737;49.760;6.632;2023-06-10T13:38:26;2.88;;;2.50;;
28529;SDS011;15737;49.760;6.632;2023-06-10T13:40:52;2.60;;;2.40;;
28529;SDS011;15737;49.760;6.632;2023-06-10T13:43:17;2.60;;;2.40;;
28529;SDS011;15737;49.760;6.632;2023-06-10T13:45:43;2.97;;;2.75;;
28529;SDS011;15737;49.760;6.632;2023-06-10T13:48:08;3.15;;;2.80;;
28529;SDS011;15737;49.760;6.632;2023-06-10T13:50:34;2.88;;;2.55;;
28529;SDS011;15737;49.760;6.632;2023-06-10T13:52:59;2.67;;;2.45;;
28529;SDS011;15737;49.760;6.632;2023-06-10T13:55:25;2.80;;;2.60;;
28529;SDS011;15737;49.760;6.632;2023-06-10T13:57:50;2.20;;;2.10;;
28529;SDS011;15737;49.760;6.632;2023-06-10T14:00:16;2.55;;;2.38;;
28529;SDS011;15737;49.760;6.632;2023-06-10T14:02:42;2.65;;;2.45;;
28529;SDS011;15737;49.760;6.632;2023-06-10T14:05:08;3.17;;;2.97;;
28529;SDS011;15737;49.760;6.632;2023-06-10T14:07:34;2.53;;;2.40;;
28529;SDS011;15737;49.760;6.632;2023-06-10T14:10:00;2.78;;;2.58;;
28529;SDS011;15737;49.760;6.632;2023-06-10T14:12:25;2.50;;;2.40;;
28529;SDS011;15737;49.760;6.632;2023-06-10T14:14:51;4.65;;;2.58;;
28529;SDS011;15737;49.760;6.632;2023-06-10T14:17:16;2.85;;;2.63;;
28529;SDS011;15737;49.760;6.632;2023-06-10T14:19:42;4.28;;;2.60;;
28529;SDS011;15737;49.760;6.632;2023-06-10T14:22:07;2.40;;;2.30;;
28529;SDS011;15737;49.760;6.632;2023-06-10T14:24:33;3.03;;;2.35;;
28529;SDS011;15737;49.760;6.632;2023-06-10T14:27:00;2.30;;;2.20;;
28529;SDS011;15737;49.760;6.632;2023-06-10T14:29:25;2.45;;;2.25;;
28529;SDS011;15737;49.760;6.632;2023-06-10T14:31:53;2.25;;;2.08;;
28529;SDS011;15737;49.760;6.632;2023-06-10T14:34:19;2.15;;;2.05;;
28529;SDS011;15737;49.760;6.632;2023-06-10T14:36:45;2.00;;;1.88;;
28529;SDS011;15737;49.760;6.632;2023-06-10T14:39:11;2.30;;;2.10;;
28529;SDS011;15737;49.760;6.632;2023-06-10T14:41:36;1.80;;;1.70;;
28529;SDS011;15737;49.760;6.632;2023-06-10T14:44:02;2.35;;;2.17;;
28529;SDS011;15737;49.760;6.632;2023-06-10T14:46:28;2.97;;;1.95;;
28529;SDS011;15737;49.760;6.632;2023-06-10T14:48:54;3.10;;;2.10;;
28529;SDS011;15737;49.760;6.632;2023-06-10T14:51:19;1.98;;;1.88;;
28529;SDS011;15737;49.760;6.632;2023-06-10T14:53:45;1.95;;;1.85;;
28529;SDS011;15737;49.760;6.632;2023-06-10T14:56:11;2.53;;;2.20;;
28529;SDS011;15737;49.760;6.632;2023-06-10T14:58:37;2.25;;;2.05;;
28529;SDS011;15737;49.760;6.632;2023-06-10T15:01:03;2.05;;;1.95;;
28529;SDS011;15737;49.760;6.632;2023-06-10T15:03:28;3.60;;;2.58;;
28529;SDS011;15737;49.760;6.632;2023-06-10T15:05:54;3.78;;;2.42;;
28529;SDS011;15737;49.760;6.632;2023-06-10T15:08:19;2.40;;;2.20;;
28529;SDS011;15737;49.760;6.632;2023-06-10T15:10:45;2.05;;;1.92;;
28529;SDS011;15737;49.760;6.632;2023-06-10T15:13:13;2.20;;;2.10;;
28529;SDS011;15737;49.760;6.632;2023-06-10T15:15:38;2.50;;;2.30;;